DBBB/COO METAR and TAF weather

Enter ICAO airport designator
Station Type Date Time Source
DBBB METAR 2020/09/21 09:00 UTC NOAA

DBBB 210900Z 24014KT 9999 SCT012 27/24 Q1014 NOSIG


Station Type Date Time Source
DBBB Decoded METAR 2020/09/21 09:00 UTC NOAA

Cotonou, Benin (DBBB) 06-21N 002-23E 9M
Sep 21, 2020 - 05:00 AM EDT / 2020.09.21 0900 UTC
Wind: from the WSW (240 degrees) at 16 MPH (14 KT):0
Visibility: greater than 7 mile(s):0
Sky conditions: partly cloudy
Temperature: 80 F (27 C)
Dew Point: 75 F (24 C)
Relative Humidity: 83%
Pressure (altimeter): 29.94 in. Hg (1014 hPa)
ob: DBBB 210900Z 24014KT 9999 SCT012 27/24 Q1014 NOSIG
cycle: 9

Station Type Date Time Source
DBBB TAF 2020/09/21 06:31 UTC NOAA

TAF DBBB 210500Z 2106/2212 23012KT 9999 SCT010 PROB30
TEMPO 2106/2112 BKN010 PROB30
TEMPO 2112/2118 BKN012 FEW023CB

Example: see airport list